createdAt,value
2023-01-09T00:01:36.771Z,0.90
2023-01-09T00:04:04.409Z,0.47
2023-01-09T00:06:31.954Z,0.80
2023-01-09T00:08:59.473Z,0.90
2023-01-09T00:11:27.010Z,1.53
2023-01-09T00:13:54.570Z,0.30
2023-01-09T00:16:22.234Z,0.57
2023-01-09T00:18:49.632Z,0.50
2023-01-09T00:21:18.340Z,0.70
2023-01-09T00:23:45.863Z,0.10
2023-01-09T00:26:13.394Z,0.53
2023-01-09T00:28:40.960Z,1.03
2023-01-09T00:31:08.504Z,0.40
2023-01-09T00:33:35.994Z,0.40
2023-01-09T00:36:03.579Z,0.80
2023-01-09T00:38:31.129Z,2.37
2023-01-09T00:40:58.619Z,1.07
2023-01-09T00:43:26.196Z,0.30
2023-01-09T00:45:53.762Z,1.10
2023-01-09T00:48:21.251Z,0.30
2023-01-09T00:50:48.806Z,0.67
2023-01-09T00:53:16.373Z,1.80
2023-01-09T00:55:43.874Z,0.80
2023-01-09T00:58:11.427Z,0.20
2023-01-09T01:00:38.955Z,0.50
2023-01-09T01:03:06.575Z,0.30
2023-01-09T01:05:52.115Z,0.50
2023-01-09T01:08:19.713Z,0.30
2023-01-09T01:10:47.244Z,1.60
2023-01-09T01:13:15.691Z,0.30
2023-01-09T01:15:43.214Z,1.80
2023-01-09T01:18:10.817Z,0.73
2023-01-09T01:20:38.413Z,0.40
2023-01-09T01:23:05.937Z,0.20
2023-01-09T01:25:33.452Z,0.30
2023-01-09T01:28:01.016Z,2.67
2023-01-09T01:30:28.564Z,0.60
2023-01-09T01:32:56.171Z,4.73
2023-01-09T01:35:23.679Z,0.30
2023-01-09T01:37:51.205Z,1.67
2023-01-09T01:40:18.732Z,1.60
2023-01-09T01:42:48.727Z,0.90
2023-01-09T01:45:19.079Z,0.37
2023-01-09T01:47:49.555Z,1.00
2023-01-09T01:50:35.198Z,2.00
2023-01-09T01:53:14.842Z,2.70
2023-01-09T01:55:42.396Z,2.47
2023-01-09T01:58:09.924Z,2.40
2023-01-09T02:00:37.455Z,1.97
2023-01-09T02:03:05.033Z,3.05
2023-01-09T02:05:32.549Z,2.40
2023-01-09T02:08:00.094Z,2.80
2023-01-09T02:10:27.654Z,2.90
2023-01-09T02:12:55.171Z,1.67
2023-01-09T02:15:22.703Z,0.97
2023-01-09T02:18:11.208Z,2.70
2023-01-09T02:20:50.295Z,3.03
2023-01-09T02:23:26.347Z,1.87
2023-01-09T02:26:11.714Z,0.90
2023-01-09T02:29:03.280Z,2.00
2023-01-09T02:31:36.620Z,2.10
2023-01-09T02:34:09.479Z,3.23
2023-01-09T02:36:37.021Z,0.77
2023-01-09T02:39:22.161Z,5.03
2023-01-09T02:42:01.593Z,3.03
2023-01-09T02:44:29.075Z,2.10
2023-01-09T02:47:08.375Z,3.67
2023-01-09T02:49:35.950Z,3.37
2023-01-09T02:52:40.131Z,3.27
2023-01-09T02:55:32.155Z,2.60
2023-01-09T02:58:29.721Z,1.73
2023-01-09T03:01:05.932Z,3.30
2023-01-09T03:03:39.234Z,3.13
2023-01-09T03:06:12.504Z,2.17
2023-01-09T03:08:42.743Z,4.67
2023-01-09T03:11:10.280Z,2.63
2023-01-09T03:13:46.408Z,2.33
2023-01-09T03:16:13.987Z,1.47
2023-01-09T03:18:41.490Z,2.80
2023-01-09T03:21:09.041Z,4.33
2023-01-09T03:23:51.393Z,3.70
2023-01-09T03:26:18.954Z,1.73
2023-01-09T03:28:46.473Z,4.53
2023-01-09T03:31:14.083Z,2.43
2023-01-09T03:33:41.588Z,4.53
2023-01-09T03:36:09.109Z,1.37
2023-01-09T03:38:36.634Z,3.53
2023-01-09T03:41:04.257Z,7.20
2023-01-09T03:43:31.753Z,3.30
2023-01-09T03:45:59.346Z,5.50
2023-01-09T03:48:27.085Z,3.60
2023-01-09T03:50:54.592Z,3.10
2023-01-09T03:53:22.136Z,0.97
2023-01-09T03:55:49.712Z,3.27
2023-01-09T03:58:17.244Z,2.40
2023-01-09T04:00:44.833Z,5.32
2023-01-09T04:03:12.395Z,3.33
2023-01-09T04:05:39.922Z,5.90
2023-01-09T04:08:07.456Z,2.47
2023-01-09T04:10:35.031Z,4.17
2023-01-09T04:13:02.561Z,5.53
2023-01-09T04:15:30.076Z,4.53
2023-01-09T04:17:57.645Z,2.53
2023-01-09T04:20:25.167Z,3.53
2023-01-09T04:22:52.695Z,6.63
2023-01-09T04:25:20.551Z,4.90
2023-01-09T04:27:49.388Z,3.07
2023-01-09T04:30:15.604Z,3.90
2023-01-09T04:32:43.187Z,5.33
2023-01-09T04:35:10.716Z,4.37
2023-01-09T04:37:38.252Z,2.03
2023-01-09T04:40:05.825Z,10.47
2023-01-09T04:42:33.350Z,4.63
2023-01-09T04:45:00.922Z,4.40
2023-01-09T04:47:28.452Z,4.53
2023-01-09T04:49:55.974Z,7.17
2023-01-09T04:52:23.507Z,8.50
2023-01-09T04:54:51.112Z,9.17
2023-01-09T04:57:18.640Z,7.90
2023-01-09T04:59:46.305Z,4.73
2023-01-09T05:02:13.968Z,9.67
2023-01-09T05:04:41.467Z,7.45
2023-01-09T05:07:08.963Z,7.53
2023-01-09T05:09:36.560Z,4.07
2023-01-09T05:12:04.080Z,9.80
2023-01-09T05:14:31.625Z,7.00
2023-01-09T05:16:59.199Z,8.50
2023-01-09T05:19:26.753Z,8.60
2023-01-09T05:21:54.297Z,4.93
2023-01-09T05:24:21.875Z,9.00
2023-01-09T05:26:49.397Z,5.80
2023-01-09T05:29:16.943Z,8.27
2023-01-09T05:31:44.519Z,7.97
2023-01-09T05:34:12.033Z,6.03
2023-01-09T05:36:39.571Z,12.97
2023-01-09T05:39:07.159Z,10.23
2023-01-09T05:41:34.684Z,8.53
2023-01-09T05:44:02.201Z,9.10
2023-01-09T05:46:29.751Z,9.77
2023-01-09T05:48:57.273Z,6.80
2023-01-09T05:51:24.820Z,8.77
2023-01-09T05:53:52.386Z,9.50
2023-01-09T05:56:19.929Z,8.33
2023-01-09T05:58:47.465Z,7.37
2023-01-09T06:01:15.119Z,8.80
2023-01-09T06:03:42.574Z,4.03
2023-01-09T06:06:10.104Z,3.23
2023-01-09T06:08:37.652Z,9.50
2023-01-09T06:11:05.299Z,5.00
2023-01-09T06:13:32.820Z,3.87
2023-01-09T06:16:00.448Z,9.80
2023-01-09T06:18:27.943Z,12.10
2023-01-09T06:20:55.483Z,4.60
2023-01-09T06:23:23.061Z,6.93
2023-01-09T06:25:50.611Z,3.80
2023-01-09T06:28:18.148Z,3.63
2023-01-09T06:30:46.070Z,6.40
2023-01-09T06:33:13.592Z,7.87
2023-01-09T06:35:41.105Z,10.47
2023-01-09T06:38:08.681Z,9.70
2023-01-09T06:40:36.215Z,8.37
2023-01-09T06:43:03.749Z,7.47
2023-01-09T06:45:31.589Z,11.23
2023-01-09T06:47:59.104Z,6.43
2023-01-09T06:50:26.648Z,12.53
2023-01-09T06:52:54.232Z,9.03
2023-01-09T06:55:21.759Z,7.83
2023-01-09T06:57:49.282Z,10.30
2023-01-09T07:00:16.934Z,14.45
2023-01-09T07:02:44.531Z,11.83
2023-01-09T07:05:12.097Z,11.40
2023-01-09T07:07:40.524Z,11.77
2023-01-09T07:10:08.071Z,10.07
2023-01-09T07:12:35.602Z,8.10
2023-01-09T07:15:03.171Z,14.55
2023-01-09T07:17:30.693Z,16.37
2023-01-09T07:19:58.208Z,12.47
2023-01-09T07:22:25.900Z,11.43
2023-01-09T07:24:53.474Z,11.83
2023-01-09T07:27:21.020Z,5.30
2023-01-09T07:29:48.673Z,9.87
2023-01-09T07:32:16.147Z,10.33
2023-01-09T07:34:43.683Z,6.10
2023-01-09T07:37:11.246Z,9.77
2023-01-09T07:39:38.792Z,13.00
2023-01-09T07:42:06.316Z,12.27
2023-01-09T07:44:33.889Z,15.60
2023-01-09T07:47:01.482Z,3.07
2023-01-09T07:49:29.023Z,7.50
2023-01-09T07:51:56.595Z,7.47
2023-01-09T07:54:24.143Z,7.73
2023-01-09T07:56:51.663Z,6.53
2023-01-09T07:59:19.236Z,10.93
2023-01-09T08:01:46.887Z,7.67
2023-01-09T08:04:14.291Z,9.60
2023-01-09T08:06:41.848Z,8.87
2023-01-09T08:09:09.382Z,11.10
2023-01-09T08:11:36.913Z,13.18
2023-01-09T08:14:04.532Z,12.93
2023-01-09T08:16:32.048Z,7.43
2023-01-09T08:18:59.577Z,8.07
2023-01-09T08:21:27.160Z,5.97
2023-01-09T08:23:54.708Z,8.00
2023-01-09T08:26:22.216Z,4.93
2023-01-09T08:28:49.792Z,6.20
2023-01-09T08:31:17.373Z,7.40
2023-01-09T08:33:44.881Z,5.27
2023-01-09T08:36:12.503Z,5.97
2023-01-09T08:38:39.981Z,4.00
2023-01-09T08:41:25.465Z,4.53
2023-01-09T08:44:11.082Z,3.43
2023-01-09T08:46:56.693Z,2.83
2023-01-09T08:49:24.233Z,5.30
2023-01-09T08:51:51.758Z,8.63
2023-01-09T08:54:19.331Z,6.07
2023-01-09T08:56:46.868Z,3.53
2023-01-09T08:59:14.391Z,2.30
2023-01-09T09:01:42.050Z,5.87
2023-01-09T09:04:09.472Z,3.03
2023-01-09T09:06:37.011Z,5.87
2023-01-09T09:09:04.577Z,7.30
2023-01-09T09:11:32.130Z,4.47
2023-01-09T09:13:59.649Z,3.87
2023-01-09T09:16:27.327Z,6.10
2023-01-09T09:18:54.719Z,7.40
2023-01-09T09:21:22.252Z,4.97
2023-01-09T09:23:49.827Z,6.00
2023-01-09T09:26:17.365Z,6.60
2023-01-09T09:28:44.891Z,4.17
2023-01-09T09:31:12.545Z,3.60
2023-01-09T09:33:40.026Z,3.60
2023-01-09T09:36:07.561Z,6.63
2023-01-09T09:38:35.125Z,6.00
2023-01-09T09:41:08.133Z,4.03
2023-01-09T09:44:02.193Z,7.63
2023-01-09T09:46:44.382Z,4.30
2023-01-09T09:49:20.598Z,5.33
2023-01-09T09:51:48.134Z,5.40
2023-01-09T09:54:16.602Z,2.60
2023-01-09T09:56:45.902Z,3.30
2023-01-09T09:59:16.379Z,4.23
2023-01-09T10:01:43.926Z,4.90
2023-01-09T10:04:11.504Z,0.67
2023-01-09T10:06:41.703Z,1.83
2023-01-09T10:09:45.881Z,2.93
2023-01-09T10:12:21.994Z,4.97
2023-01-09T10:14:49.525Z,2.95
2023-01-09T10:17:28.781Z,5.37
2023-01-09T10:20:19.903Z,2.73
2023-01-09T10:22:49.938Z,2.00
2023-01-09T10:25:32.236Z,1.73
2023-01-09T10:28:28.062Z,2.07
2023-01-09T10:31:16.657Z,2.43
2023-01-09T10:34:05.015Z,2.13
2023-01-09T10:36:59.802Z,2.30
2023-01-09T10:39:27.338Z,3.30
2023-01-09T10:41:54.872Z,3.23
2023-01-09T10:44:25.325Z,2.63
2023-01-09T10:46:55.563Z,2.17
2023-01-09T10:49:23.039Z,2.93
2023-01-09T10:51:50.564Z,3.20
2023-01-09T10:54:18.149Z,4.57
2023-01-09T10:56:45.676Z,3.43
2023-01-09T10:59:13.248Z,4.87
2023-01-09T11:01:40.815Z,3.77
2023-01-09T11:04:19.857Z,2.77
2023-01-09T11:06:47.443Z,5.73
2023-01-09T11:09:17.445Z,4.57
2023-01-09T11:11:44.973Z,6.13
2023-01-09T11:14:18.256Z,3.80
2023-01-09T11:16:51.582Z,5.10
2023-01-09T11:19:19.097Z,6.83
2023-01-09T11:21:46.659Z,16.30
2023-01-09T11:24:19.896Z,19.67
2023-01-09T11:26:53.426Z,4.30
2023-01-09T11:29:20.942Z,3.03
2023-01-09T11:31:51.385Z,2.63
2023-01-09T11:34:18.946Z,5.37
2023-01-09T11:36:46.492Z,11.80
2023-01-09T11:39:25.834Z,4.23
2023-01-09T11:41:53.365Z,4.67
2023-01-09T11:44:20.885Z,13.37
2023-01-09T11:46:48.481Z,2.93
2023-01-09T11:49:15.969Z,4.60
2023-01-09T11:51:43.496Z,6.83
2023-01-09T11:54:22.883Z,6.83
2023-01-09T11:56:50.447Z,4.93
2023-01-09T11:59:17.964Z,1.37
2023-01-09T12:02:00.350Z,2.60
2023-01-09T12:04:45.702Z,4.12
2023-01-09T12:07:37.269Z,4.83
2023-01-09T12:10:38.118Z,3.20
2023-01-09T12:13:08.370Z,4.37
2023-01-09T12:15:41.592Z,7.47
2023-01-09T12:18:18.000Z,3.23
2023-01-09T12:21:06.397Z,3.13
2023-01-09T12:23:36.610Z,2.67
2023-01-09T12:26:18.885Z,6.72
2023-01-09T12:29:07.304Z,4.97
2023-01-09T12:31:59.086Z,4.03
2023-01-09T12:34:53.583Z,1.90
2023-01-09T12:37:32.578Z,4.27
2023-01-09T12:40:12.046Z,6.73
2023-01-09T12:43:06.963Z,4.53
2023-01-09T12:45:55.426Z,6.27
2023-01-09T12:48:37.673Z,3.07
2023-01-09T12:51:10.685Z,2.30
2023-01-09T12:53:38.240Z,5.23
2023-01-09T12:56:08.394Z,1.10
2023-01-09T12:58:44.898Z,2.10
2023-01-09T13:01:15.448Z,1.17
2023-01-09T13:03:45.420Z,2.75
2023-01-09T13:06:12.986Z,2.30
2023-01-09T13:08:43.141Z,0.77
2023-01-09T13:11:20.382Z,3.73
2023-01-09T13:13:49.370Z,0.53
2023-01-09T13:16:19.855Z,1.62
2023-01-09T13:18:53.365Z,1.63
2023-01-09T13:21:20.923Z,0.17
2023-01-09T13:23:54.414Z,0.87
2023-01-09T13:26:33.306Z,0.30
2023-01-09T13:29:06.752Z,0.50
2023-01-09T13:31:36.956Z,0.70
2023-01-09T13:34:06.462Z,0.40
2023-01-09T13:36:32.055Z,1.60
2023-01-09T13:38:59.548Z,0.77
2023-01-09T13:41:45.805Z,1.17
2023-01-09T13:44:27.159Z,1.03
2023-01-09T13:46:57.805Z,0.80
2023-01-09T13:49:37.164Z,0.93
2023-01-09T13:52:22.848Z,0.47
2023-01-09T13:54:56.050Z,0.30
2023-01-09T13:57:26.503Z,1.90
2023-01-09T13:59:54.028Z,0.20
2023-01-09T14:02:39.003Z,3.73
2023-01-09T14:05:09.651Z,1.70
2023-01-09T14:07:43.162Z,1.93
2023-01-09T14:10:25.605Z,0.73
2023-01-09T14:12:53.093Z,1.30
2023-01-09T14:15:35.519Z,1.07
2023-01-09T14:18:03.002Z,0.83
2023-01-09T14:20:33.421Z,2.20
2023-01-09T14:25:28.525Z,0.50
2023-01-09T14:27:56.062Z,1.60
2023-01-09T14:30:26.303Z,0.90
2023-01-09T14:33:02.336Z,2.47
2023-01-09T14:35:32.650Z,3.03
2023-01-09T14:38:00.162Z,1.50
2023-01-09T14:40:27.710Z,0.77
2023-01-09T14:42:55.297Z,0.30
2023-01-09T14:45:22.808Z,0.30
2023-01-09T14:47:59.397Z,0.50
2023-01-09T14:50:32.273Z,0.57
2023-01-09T14:53:08.541Z,1.40
2023-01-09T14:55:53.949Z,0.40
2023-01-09T14:58:27.955Z,1.90
2023-01-09T15:00:55.525Z,2.70
2023-01-09T15:03:23.010Z,0.77
2023-01-09T15:05:50.693Z,2.47
2023-01-09T15:08:18.241Z,1.27
2023-01-09T15:10:47.072Z,0.73
2023-01-09T15:13:16.044Z,0.63
2023-01-09T15:15:46.296Z,4.67
2023-01-09T15:18:13.850Z,2.70
2023-01-09T15:20:41.453Z,2.93
2023-01-09T15:23:08.989Z,2.83
2023-01-09T15:25:40.625Z,2.60
2023-01-09T15:28:04.157Z,2.23
2023-01-09T15:30:34.103Z,2.87
2023-01-09T15:33:10.195Z,6.23
2023-01-09T15:35:43.637Z,4.53
2023-01-09T15:38:11.162Z,3.87
2023-01-09T15:40:38.727Z,3.80
2023-01-09T15:43:06.259Z,2.43
2023-01-09T15:45:39.519Z,4.20
2023-01-09T15:48:15.821Z,3.67
2023-01-09T15:50:43.318Z,6.00
2023-01-09T15:53:16.524Z,2.87
2023-01-09T15:55:44.081Z,7.57
2023-01-09T15:58:31.905Z,6.83
2023-01-09T16:01:08.349Z,4.37
2023-01-09T16:03:38.719Z,2.33
2023-01-09T16:06:09.014Z,3.53
2023-01-09T16:08:42.748Z,4.43
2023-01-09T16:11:10.979Z,8.33
2023-01-09T16:13:43.571Z,3.17
2023-01-09T16:16:11.186Z,1.63
2023-01-09T16:18:38.656Z,5.10
2023-01-09T16:21:06.193Z,1.73
2023-01-09T16:23:34.251Z,2.03
2023-01-09T16:26:13.337Z,2.97
2023-01-09T16:28:43.591Z,2.60
2023-01-09T16:31:19.881Z,2.10
2023-01-09T16:33:47.318Z,2.70
2023-01-09T16:36:14.930Z,3.70
2023-01-09T16:38:42.451Z,1.57
2023-01-09T16:41:33.670Z,2.43
2023-01-09T16:44:01.209Z,3.93
2023-01-09T16:46:28.829Z,2.73
2023-01-09T16:48:56.280Z,1.97
2023-01-09T16:51:23.819Z,2.30
2023-01-09T16:53:51.353Z,3.43
2023-01-09T16:56:18.913Z,2.33
2023-01-09T16:58:46.454Z,3.25
2023-01-09T17:01:14.001Z,1.37
2023-01-09T17:03:43.813Z,2.87
2023-01-09T17:08:44.710Z,4.33
2023-01-09T17:11:14.963Z,2.43
2023-01-09T17:13:42.518Z,3.80
2023-01-09T17:16:10.107Z,6.03
2023-01-09T17:18:37.642Z,3.40
2023-01-09T17:21:05.160Z,3.28
2023-01-09T17:23:32.686Z,3.83
2023-01-09T17:26:18.068Z,1.33
2023-01-09T17:28:45.586Z,1.47
2023-01-09T17:31:13.237Z,1.60
2023-01-09T17:33:40.686Z,2.23
2023-01-09T17:36:08.200Z,2.50
2023-01-09T17:38:35.741Z,3.23
2023-01-09T17:41:03.329Z,2.43
2023-01-09T17:43:30.835Z,3.33
2023-01-09T17:45:58.408Z,2.30
2023-01-09T17:48:26.182Z,2.37
2023-01-09T17:50:53.704Z,4.23
2023-01-09T17:53:21.239Z,3.37
2023-01-09T17:55:48.835Z,2.63
2023-01-09T17:58:24.915Z,3.10
2023-01-09T18:00:52.614Z,2.70
2023-01-09T18:03:20.023Z,3.03
2023-01-09T18:05:47.537Z,3.27
2023-01-09T18:08:15.060Z,1.07
2023-01-09T18:10:42.607Z,1.97
2023-01-09T18:13:10.151Z,3.00
2023-01-09T18:15:37.687Z,2.90
2023-01-09T18:18:05.310Z,1.60
2023-01-09T18:20:32.849Z,2.07
2023-01-09T18:23:00.379Z,1.83
2023-01-09T18:25:27.963Z,0.63
2023-01-09T18:27:55.502Z,0.83
2023-01-09T18:30:23.022Z,1.33
2023-01-09T18:32:50.568Z,2.17
2023-01-09T18:35:18.116Z,2.47
2023-01-09T18:37:45.652Z,4.83
2023-01-09T18:40:13.179Z,6.43
2023-01-09T18:42:40.720Z,4.70
2023-01-09T18:45:08.353Z,2.70
2023-01-09T18:47:35.947Z,3.60
2023-01-09T18:50:03.486Z,3.17
2023-01-09T18:52:31.003Z,3.53
2023-01-09T18:54:58.568Z,2.53
2023-01-09T18:57:26.103Z,3.53
2023-01-09T18:59:53.634Z,1.60
2023-01-09T19:02:21.207Z,1.73
2023-01-09T19:04:48.742Z,3.20
2023-01-09T19:07:16.270Z,2.33
2023-01-09T19:09:43.834Z,2.97
2023-01-09T19:12:11.363Z,2.07
2023-01-09T19:14:38.876Z,2.57
2023-01-09T19:17:06.452Z,2.27
2023-01-09T19:19:33.989Z,1.90
2023-01-09T19:22:01.534Z,2.57
2023-01-09T19:24:29.638Z,2.47
2023-01-09T19:26:57.298Z,1.20
2023-01-09T19:29:24.831Z,1.13
2023-01-09T19:31:52.484Z,1.93
2023-01-09T19:34:19.958Z,2.80
2023-01-09T19:36:47.523Z,1.00
2023-01-09T19:39:15.075Z,1.03
2023-01-09T19:41:42.584Z,0.90
2023-01-09T19:44:10.094Z,1.57
2023-01-09T19:46:37.707Z,1.67
2023-01-09T19:49:05.231Z,1.27
2023-01-09T19:51:32.746Z,0.87
2023-01-09T19:56:27.939Z,3.87
2023-01-09T19:58:55.482Z,4.23
2023-01-09T20:01:25.885Z,3.73
2023-01-09T20:03:53.359Z,2.93
2023-01-09T20:06:20.902Z,2.23
2023-01-09T20:08:48.500Z,2.07
2023-01-09T20:11:16.009Z,1.13
2023-01-09T20:13:43.548Z,2.40
2023-01-09T20:16:13.578Z,2.07
2023-01-09T20:18:41.098Z,3.27
2023-01-09T20:21:08.763Z,5.07
2023-01-09T20:23:36.334Z,2.75
2023-01-09T20:26:03.855Z,2.27
2023-01-09T20:28:31.386Z,3.00
2023-01-09T20:30:58.937Z,1.43
2023-01-09T20:33:26.473Z,0.30
2023-01-09T20:35:54.004Z,0.33
2023-01-09T20:38:22.320Z,1.40
2023-01-09T20:40:49.134Z,0.80
2023-01-09T20:43:16.666Z,0.40
2023-01-09T20:45:44.263Z,1.93
2023-01-09T20:48:11.827Z,2.00
2023-01-09T20:50:39.359Z,1.10
2023-01-09T20:53:07.947Z,3.57
2023-01-09T20:55:34.704Z,4.27
2023-01-09T20:58:02.247Z,1.17
2023-01-09T21:00:29.810Z,2.80
2023-01-09T21:02:57.322Z,3.93
2023-01-09T21:05:24.858Z,0.70
2023-01-09T21:07:52.410Z,1.30
2023-01-09T21:10:19.957Z,2.80
2023-01-09T21:12:47.487Z,0.50
2023-01-09T21:15:15.065Z,0.27
2023-01-09T21:17:42.589Z,1.20
2023-01-09T21:20:10.974Z,1.60
2023-01-09T21:22:38.459Z,0.80
2023-01-09T21:25:05.998Z,1.50
2023-01-09T21:27:35.919Z,1.53
2023-01-09T21:30:06.286Z,1.00
2023-01-09T21:32:33.823Z,6.53
2023-01-09T21:35:01.347Z,1.50
2023-01-09T21:37:29.190Z,0.67
2023-01-09T21:39:56.774Z,1.20
2023-01-09T21:42:42.511Z,0.40
2023-01-09T21:45:34.051Z,0.50
2023-01-09T21:48:04.325Z,0.97
2023-01-09T21:50:31.843Z,0.77
2023-01-09T21:52:59.381Z,0.80
2023-01-09T21:55:27.479Z,2.07
2023-01-09T21:57:55.012Z,1.97
2023-01-09T22:00:22.536Z,2.30
2023-01-09T22:02:50.099Z,1.47
2023-01-09T22:05:17.611Z,0.83
2023-01-09T22:07:45.144Z,1.40
2023-01-09T22:10:12.683Z,0.63
2023-01-09T22:12:40.201Z,0.40
2023-01-09T22:15:07.717Z,1.43
2023-01-09T22:17:35.292Z,0.60
2023-01-09T22:20:02.809Z,0.83
2023-01-09T22:22:30.339Z,2.67
2023-01-09T22:24:57.897Z,1.77
2023-01-09T22:27:25.427Z,1.57
2023-01-09T22:29:52.940Z,1.83
2023-01-09T22:32:20.672Z,3.25
2023-01-09T22:34:48.177Z,1.27
2023-01-09T22:37:15.725Z,4.93
2023-01-09T22:39:43.304Z,8.27
2023-01-09T22:42:10.802Z,7.20
2023-01-09T22:44:38.335Z,6.77
2023-01-09T22:47:05.923Z,2.77
2023-01-09T22:49:41.223Z,2.57
2023-01-09T22:52:00.982Z,3.37
2023-01-09T22:54:29.427Z,4.33
2023-01-09T22:56:56.945Z,2.83
2023-01-09T22:59:24.507Z,4.33
2023-01-09T23:01:53.012Z,5.28
2023-01-09T23:04:20.469Z,4.30
2023-01-09T23:06:47.993Z,1.27
2023-01-09T23:09:15.570Z,1.30
2023-01-09T23:12:00.825Z,1.30
2023-01-09T23:14:28.383Z,3.93
2023-01-09T23:16:55.932Z,4.53
2023-01-09T23:19:23.444Z,5.80
2023-01-09T23:21:51.041Z,7.27
2023-01-09T23:24:18.591Z,7.43
2023-01-09T23:26:46.115Z,8.37
2023-01-09T23:29:13.693Z,11.53
2023-01-09T23:31:41.236Z,12.33
2023-01-09T23:34:09.365Z,9.27
2023-01-09T23:36:36.927Z,7.83
2023-01-09T23:39:04.410Z,5.77
2023-01-09T23:41:34.541Z,3.00
2023-01-09T23:44:02.090Z,2.78
2023-01-09T23:46:29.611Z,1.73
2023-01-09T23:48:57.137Z,3.85
2023-01-09T23:51:24.706Z,5.63
2023-01-09T23:53:52.233Z,7.00
2023-01-09T23:56:19.777Z,8.77
2023-01-09T23:58:47.595Z,8.57
